Time;durP1;ratioP1;P1;durP2;ratioP2;P2;SDS_P1;SDS_P2;PMS_P1;PMS_P2;Temp;Humidity;BMP_temperature;BMP_pressure;BME280_temperature;BME280_humidity;BME280_pressure;Samples;Min_cycle;Max_cycle;Signal;HPM_P1;HPM_P2
2024/02/29 00:01:28;;;;;;;;;;;16.30;65.20;;;;;;5052175;28;19971;-73
2024/02/29 00:03:54;;;;;;;;;;;16.00;65.60;;;;;;5052569;28;20326;-73
2024/02/29 00:06:19;;;;;;;;;;;16.40;65.70;;;;;;5052186;28;19920;-72
2024/02/29 00:08:45;;;;;;;;;;;16.30;65.80;;;;;;5051991;28;20415;-73
2024/02/29 00:11:11;;;;;;;;;;;16.30;65.70;;;;;;5052143;28;19909;-73
2024/02/29 00:13:36;;;;;;;;;;;16.30;65.50;;;;;;5052140;28;19963;-72
2024/02/29 00:16:02;;;;;;;;;;;16.20;65.80;;;;;;5052277;28;19909;-73
2024/02/29 00:18:27;;;;;;;;;;;16.30;65.20;;;;;;5052091;28;19912;-73
2024/02/29 00:20:53;;;;;;;;;;;16.30;65.80;;;;;;5052153;28;19917;-72
2024/02/29 00:23:18;;;;;;;;;;;16.20;65.60;;;;;;5052024;28;19919;-72
2024/02/29 00:25:44;;;;;;;;;;;16.30;65.70;;;;;;5051967;28;20028;-72
2024/02/29 00:28:09;;;;;;;;;;;16.30;65.50;;;;;;5052041;28;19913;-73
2024/02/29 00:30:35;;;;;;;;;;;16.30;65.80;;;;;;5052065;28;19909;-72
2024/02/29 00:33:03;;;;;;;;;;;16.20;65.60;;;;;;5052004;28;20019;-72
2024/02/29 00:35:28;;;;;;;;;;;16.30;65.90;;;;;;5052012;28;19959;-72
2024/02/29 00:37:54;;;;;;;;;;;16.20;65.90;;;;;;5052070;28;19916;-73
2024/02/29 00:40:19;;;;;;;;;;;16.20;66.20;;;;;;5051932;28;20414;-72
2024/02/29 00:42:45;;;;;;;;;;;16.20;65.90;;;;;;5051753;28;20433;-72
2024/02/29 00:45:10;;;;;;;;;;;16.30;66.10;;;;;;5051709;28;20027;-73
2024/02/29 00:47:36;;;;;;;;;;;16.20;66.60;;;;;;5051731;28;19909;-72
2024/02/29 00:50:01;;;;;;;;;;;16.20;65.70;;;;;;5052242;28;19913;-72
2024/02/29 00:52:27;;;;;;;;;;;16.30;66.00;;;;;;5051693;28;19909;-72
2024/02/29 00:54:52;;;;;;;;;;;16.20;65.90;;;;;;5051941;28;19915;-72
2024/02/29 00:57:18;;;;;;;;;;;16.20;65.60;;;;;;5051685;28;19908;-73
2024/02/29 00:59:43;;;;;;;;;;;16.20;66.00;;;;;;5052096;28;19920;-73
2024/02/29 01:02:09;;;;;;;;;;;16.20;65.40;;;;;;5051615;28;19909;-73
2024/02/29 01:04:34;;;;;;;;;;;16.20;65.60;;;;;;5051743;28;19917;-72
2024/02/29 01:07:00;;;;;;;;;;;16.20;65.90;;;;;;5055356;28;19944;-73
2024/02/29 01:09:27;;;;;;;;;;;16.20;65.80;;;;;;5055626;28;19908;-72
2024/02/29 01:11:53;;;;;;;;;;;16.20;65.80;;;;;;5055731;28;19909;-72
2024/02/29 01:14:18;;;;;;;;;;;16.20;65.80;;;;;;5055431;28;19923;-73
2024/02/29 01:16:44;;;;;;;;;;;16.20;65.70;;;;;;5055316;28;20007;-73
2024/02/29 01:19:09;;;;;;;;;;;16.20;65.60;;;;;;5055853;28;19908;-70
2024/02/29 01:21:35;;;;;;;;;;;16.20;65.70;;;;;;5055292;28;19962;-70
2024/02/29 01:24:00;;;;;;;;;;;16.20;65.70;;;;;;5055178;28;19924;-70
2024/02/29 01:26:26;;;;;;;;;;;16.20;65.80;;;;;;5055135;28;19909;-70
2024/02/29 01:28:51;;;;;;;;;;;16.20;65.60;;;;;;5055194;28;19932;-70
2024/02/29 01:31:17;;;;;;;;;;;16.10;65.70;;;;;;5055181;28;20453;-70
2024/02/29 01:33:42;;;;;;;;;;;16.20;65.40;;;;;;5055116;28;19909;-70
2024/02/29 01:36:08;;;;;;;;;;;16.20;65.30;;;;;;5054886;28;19924;-70
2024/02/29 01:38:33;;;;;;;;;;;16.20;65.60;;;;;;5055065;28;20409;-70
2024/02/29 01:40:59;;;;;;;;;;;16.20;65.40;;;;;;5054929;28;19943;-70
2024/02/29 01:43:24;;;;;;;;;;;16.10;65.40;;;;;;5054730;28;19917;-70
2024/02/29 01:45:57;;;;;;;;;;;16.10;65.50;;;;;;5054832;28;19913;-70
2024/02/29 01:48:22;;;;;;;;;;;16.10;65.60;;;;;;5055277;28;19932;-70
2024/02/29 01:50:48;;;;;;;;;;;16.10;65.10;;;;;;5054752;28;20371;-70
2024/02/29 01:53:13;;;;;;;;;;;16.10;65.30;;;;;;5054609;28;19919;-70
2024/02/29 01:55:39;;;;;;;;;;;16.10;65.10;;;;;;5054678;28;19908;-70
2024/02/29 01:58:04;;;;;;;;;;;16.10;65.30;;;;;;5054592;28;19913;-70
2024/02/29 02:00:30;;;;;;;;;;;16.20;65.50;;;;;;5054589;28;20370;-70
2024/02/29 02:02:55;;;;;;;;;;;16.10;65.00;;;;;;5054425;28;19909;-70
2024/02/29 02:05:21;;;;;;;;;;;16.10;65.40;;;;;;5054346;28;19917;-70
2024/02/29 02:07:47;;;;;;;;;;;16.10;65.30;;;;;;5054225;28;19921;-70
2024/02/29 02:10:12;;;;;;;;;;;16.10;65.30;;;;;;5054363;28;19992;-70
2024/02/29 02:12:38;;;;;;;;;;;16.10;65.30;;;;;;5054361;28;19908;-70
2024/02/29 02:15:04;;;;;;;;;;;16.10;65.30;;;;;;5054524;28;20366;-70
2024/02/29 02:17:31;;;;;;;;;;;16.10;64.10;;;;;;5054597;28;19927;-70
2024/02/29 02:19:57;;;;;;;;;;;16.10;65.40;;;;;;5054280;28;20298;-70
2024/02/29 02:22:22;;;;;;;;;;;16.10;65.30;;;;;;5054078;28;19916;-70
2024/02/29 02:24:48;;;;;;;;;;;16.00;65.20;;;;;;5054199;28;19921;-70
2024/02/29 02:27:13;;;;;;;;;;;16.00;65.40;;;;;;5054140;28;20383;-70
2024/02/29 02:29:38;;;;;;;;;;;16.00;65.30;;;;;;5054087;28;19908;-73
2024/02/29 02:32:06;;;;;;;;;;;16.00;65.30;;;;;;5053888;28;20331;-72
2024/02/29 02:34:32;;;;;;;;;;;16.00;65.00;;;;;;5053886;28;19916;-72
2024/02/29 02:36:57;;;;;;;;;;;16.00;65.30;;;;;;5053844;28;20387;-72
2024/02/29 02:39:23;;;;;;;;;;;16.00;65.20;;;;;;5053760;28;20003;-72
2024/02/29 02:41:48;;;;;;;;;;;16.10;65.40;;;;;;5054065;28;19909;-72
2024/02/29 02:44:14;;;;;;;;;;;16.00;65.30;;;;;;5053913;28;20020;-72
2024/02/29 02:46:39;;;;;;;;;;;16.00;65.30;;;;;;5053826;28;19916;-72
2024/02/29 02:49:05;;;;;;;;;;;15.90;65.60;;;;;;5053748;28;19913;-72
2024/02/29 02:51:30;;;;;;;;;;;16.00;65.30;;;;;;5053663;28;19909;-72
2024/02/29 02:53:57;;;;;;;;;;;15.90;65.50;;;;;;5053894;28;19942;-72
2024/02/29 02:56:23;;;;;;;;;;;16.00;65.30;;;;;;5053771;28;20314;-72
2024/02/29 02:58:48;;;;;;;;;;;16.00;65.30;;;;;;5053558;28;19956;-72
2024/02/29 03:01:14;;;;;;;;;;;16.00;64.80;;;;;;5053449;28;19909;-72
2024/02/29 03:03:39;;;;;;;;;;;15.90;65.40;;;;;;5053998;28;20241;-72
2024/02/29 03:06:05;;;;;;;;;;;15.90;65.30;;;;;;5053537;28;19909;-72
2024/02/29 03:08:31;;;;;;;;;;;15.90;65.30;;;;;;5053275;28;20371;-72
2024/02/29 03:10:56;;;;;;;;;;;15.90;65.40;;;;;;5053494;28;19955;-73
2024/02/29 03:13:22;;;;;;;;;;;17.80;66.60;;;;;;5053327;28;19948;-72
2024/02/29 03:15:47;;;;;;;;;;;15.90;65.60;;;;;;5053354;28;19909;-72
2024/02/29 03:18:13;;;;;;;;;;;16.00;65.50;;;;;;5053261;28;19913;-72
2024/02/29 03:20:38;;;;;;;;;;;15.90;65.40;;;;;;5053440;28;19913;-73
2024/02/29 03:23:06;;;;;;;;;;;15.90;65.40;;;;;;5052988;28;20003;-72
2024/02/29 03:25:31;;;;;;;;;;;15.80;65.30;;;;;;5053063;28;19951;-72
2024/02/29 03:27:57;;;;;;;;;;;15.80;65.40;;;;;;5052698;28;19948;-72
2024/02/29 03:30:22;;;;;;;;;;;15.90;65.60;;;;;;5053044;28;19909;-72
2024/02/29 03:32:48;;;;;;;;;;;15.80;65.40;;;;;;5053373;28;19934;-72
2024/02/29 03:35:13;;;;;;;;;;;15.90;65.30;;;;;;5053113;28;19965;-73
2024/02/29 03:37:39;;;;;;;;;;;15.90;65.70;;;;;;5052931;28;19909;-72
2024/02/29 03:40:06;;;;;;;;;;;15.90;65.50;;;;;;5052977;28;19943;-72
2024/02/29 03:42:31;;;;;;;;;;;15.80;63.10;;;;;;5053013;28;19908;-72
2024/02/29 03:44:57;;;;;;;;;;;15.80;65.60;;;;;;5052800;28;19917;-70
2024/02/29 03:47:22;;;;;;;;;;;15.80;65.10;;;;;;5052635;28;19943;-70
2024/02/29 03:49:48;;;;;;;;;;;15.70;65.40;;;;;;5052694;28;19909;-70
2024/02/29 03:52:13;;;;;;;;;;;15.80;65.40;;;;;;5052740;28;19924;-70
2024/02/29 03:54:39;;;;;;;;;;;15.80;65.40;;;;;;5052624;28;19967;-70
2024/02/29 03:57:04;;;;;;;;;;;15.80;65.60;;;;;;5052551;28;19927;-70
2024/02/29 03:59:31;;;;;;;;;;;15.80;65.00;;;;;;5053398;28;19917;-70
2024/02/29 04:01:57;;;;;;;;;;;15.80;65.00;;;;;;5052353;28;19916;-69
2024/02/29 04:04:22;;;;;;;;;;;15.70;65.50;;;;;;5052311;28;19916;-70
2024/02/29 04:06:47;;;;;;;;;;;15.80;65.50;;;;;;5052367;28;19952;-70
2024/02/29 04:09:13;;;;;;;;;;;16.10;65.50;;;;;;5052295;28;19925;-70
2024/02/29 04:11:39;;;;;;;;;;;15.70;65.50;;;;;;5052732;28;20000;-70
2024/02/29 04:14:05;;;;;;;;;;;15.80;65.50;;;;;;5052545;28;19909;-70
2024/02/29 04:16:37;;;;;;;;;;;15.70;65.60;;;;;;5052118;28;19908;-70
2024/02/29 04:19:03;;;;;;;;;;;15.70;60.90;;;;;;5034288;28;19913;-70
2024/02/29 04:21:28;;;;;;;;;;;15.70;65.60;;;;;;5052095;28;19909;-70
2024/02/29 04:23:54;;;;;;;;;;;15.70;65.80;;;;;;5052041;28;19917;-70
2024/02/29 04:26:19;;;;;;;;;;;15.70;65.70;;;;;;5052107;28;19916;-70
2024/02/29 04:28:45;;;;;;;;;;;15.70;65.80;;;;;;5052598;28;19948;-70
2024/02/29 04:31:10;;;;;;;;;;;15.70;65.80;;;;;;5052075;28;19908;-70
2024/02/29 04:33:36;;;;;;;;;;;15.80;66.10;;;;;;5052043;28;20417;-70
2024/02/29 04:36:01;;;;;;;;;;;15.70;65.90;;;;;;5052078;28;20000;-69
2024/02/29 04:38:27;;;;;;;;;;;15.70;65.20;;;;;;5052063;28;20050;-70
2024/02/29 04:40:54;;;;;;;;;;;15.70;66.20;;;;;;5054330;28;20028;-70
2024/02/29 04:43:20;;;;;;;;;;;15.80;66.20;;;;;;5056129;28;20391;-69
2024/02/29 04:45:45;;;;;;;;;;;15.80;66.10;;;;;;5056372;28;19966;-70
2024/02/29 04:48:11;;;;;;;;;;;15.70;67.00;;;;;;5055917;28;20003;-70
2024/02/29 04:50:36;;;;;;;;;;;15.70;66.20;;;;;;5056041;28;20423;-69
2024/02/29 04:53:02;;;;;;;;;;;15.70;66.20;;;;;;5055937;28;19909;-70
2024/02/29 04:55:27;;;;;;;;;;;15.70;66.20;;;;;;5055901;28;20379;-70
2024/02/29 04:57:53;;;;;;;;;;;15.50;66.00;;;;;;5056351;28;19928;-70
2024/02/29 05:00:18;;;;;;;;;;;16.30;67.10;;;;;;5055912;28;19970;-70
2024/02/29 05:02:44;;;;;;;;;;;15.70;65.60;;;;;;5055947;28;19916;-70
2024/02/29 05:05:11;;;;;;;;;;;16.30;66.60;;;;;;5055748;28;20222;-70
2024/02/29 05:07:37;;;;;;;;;;;16.30;66.70;;;;;;5055605;28;20012;-70
2024/02/29 05:10:03;;;;;;;;;;;16.40;66.90;;;;;;5055836;28;20018;-70
2024/02/29 05:12:28;;;;;;;;;;;15.70;65.60;;;;;;5055544;28;20399;-70
2024/02/29 05:14:54;;;;;;;;;;;15.70;66.20;;;;;;5055524;28;20348;-69
2024/02/29 05:17:19;;;;;;;;;;;15.80;66.00;;;;;;5055543;28;19909;-69
2024/02/29 05:19:45;;;;;;;;;;;16.30;66.40;;;;;;5055478;28;19909;-69
2024/02/29 05:22:10;;;;;;;;;;;16.20;66.30;;;;;;5055404;28;19908;-70
2024/02/29 05:24:36;;;;;;;;;;;16.10;66.50;;;;;;5055926;28;19920;-69
2024/02/29 05:27:01;;;;;;;;;;;15.60;66.10;;;;;;5055383;28;19908;-70
2024/02/29 05:29:28;;;;;;;;;;;15.80;66.20;;;;;;5056010;28;19909;-69
2024/02/29 05:31:54;;;;;;;;;;;16.30;66.60;;;;;;5055302;28;19913;-70
2024/02/29 05:34:23;;;;;;;;;;;16.10;66.40;;;;;;5055198;28;19999;-70
2024/02/29 05:36:49;;;;;;;;;;;16.10;62.30;;;;;;5055520;28;19909;-70
2024/02/29 05:39:14;;;;;;;;;;;15.80;66.30;;;;;;5055247;28;19978;-70
2024/02/29 05:41:40;;;;;;;;;;;15.80;66.20;;;;;;5055137;28;19944;-70
2024/02/29 05:44:05;;;;;;;;;;;16.40;66.40;;;;;;5054992;28;19987;-70
2024/02/29 05:46:31;;;;;;;;;;;15.80;66.90;;;;;;5055077;28;19909;-70
2024/02/29 05:48:57;;;;;;;;;;;15.80;66.00;;;;;;5037237;28;19909;-69
2024/02/29 05:51:23;;;;;;;;;;;15.80;66.00;;;;;;5054361;28;19916;-70
2024/02/29 05:53:48;;;;;;;;;;;15.80;66.10;;;;;;5055907;28;19909;-70
2024/02/29 05:56:14;;;;;;;;;;;15.70;66.00;;;;;;5055626;28;19913;-70
2024/02/29 05:58:39;;;;;;;;;;;15.80;65.90;;;;;;5054927;28;19916;-69
2024/02/29 06:01:05;;;;;;;;;;;15.80;65.90;;;;;;5054826;28;19951;-69
2024/02/29 06:03:31;;;;;;;;;;;15.70;65.30;;;;;;5054702;28;19923;-69
2024/02/29 06:05:58;;;;;;;;;;;15.70;66.10;;;;;;5054814;28;20000;-69
2024/02/29 06:08:24;;;;;;;;;;;15.80;66.20;;;;;;5054539;28;20419;-69
2024/02/29 06:10:51;;;;;;;;;;;15.80;63.20;;;;;;5053937;28;20415;-70
2024/02/29 06:13:17;;;;;;;;;;;15.70;66.10;;;;;;5054350;28;19909;-69
2024/02/29 06:15:42;;;;;;;;;;;15.70;66.20;;;;;;5054545;28;20007;-69
2024/02/29 06:18:09;;;;;;;;;;;15.80;66.60;;;;;;5054769;28;19962;-69
2024/02/29 06:20:34;;;;;;;;;;;15.70;66.30;;;;;;5054735;28;19916;-70
2024/02/29 06:23:00;;;;;;;;;;;15.70;66.30;;;;;;5055141;28;19913;-69
2024/02/29 06:25:26;;;;;;;;;;;15.80;66.40;;;;;;5054552;28;19923;-69
2024/02/29 06:27:52;;;;;;;;;;;15.80;66.30;;;;;;5054337;28;20317;-69
2024/02/29 06:30:18;;;;;;;;;;;15.70;66.40;;;;;;5054602;28;20271;-69
2024/02/29 06:32:44;;;;;;;;;;;15.80;65.90;;;;;;5054529;28;19916;-69
2024/02/29 06:35:10;;;;;;;;;;;15.70;65.80;;;;;;5054536;28;19908;-69
2024/02/29 06:37:41;;;;;;;;;;;15.80;66.20;;;;;;5054419;28;19908;-69
2024/02/29 06:40:10;;;;;;;;;;;15.70;61.60;;;;;;5054281;28;20003;-69
2024/02/29 06:42:37;;;;;;;;;;;15.70;64.20;;;;;;5054157;28;19974;-70
2024/02/29 06:45:04;;;;;;;;;;;15.70;67.20;;;;;;5054072;28;19971;-69
2024/02/29 06:47:30;;;;;;;;;;;15.60;65.20;;;;;;5053757;28;19909;-69
2024/02/29 06:49:57;;;;;;;;;;;15.70;66.10;;;;;;5053811;28;20367;-69
2024/02/29 06:52:25;;;;;;;;;;;15.70;62.20;;;;;;5053591;28;19909;-70
2024/02/29 06:54:50;;;;;;;;;;;15.70;66.20;;;;;;5053482;28;20430;-70
2024/02/29 06:57:17;;;;;;;;;;;15.70;66.10;;;;;;5053762;28;20047;-72
2024/02/29 06:59:43;;;;;;;;;;;15.50;66.20;;;;;;5055273;28;19909;-71
2024/02/29 07:02:08;;;;;;;;;;;15.70;65.80;;;;;;5053219;28;19916;-72
2024/02/29 07:04:34;;;;;;;;;;;15.70;66.10;;;;;;5052980;28;20243;-72
2024/02/29 07:07:00;;;;;;;;;;;15.70;66.50;;;;;;5053266;28;19909;-72
2024/02/29 07:09:26;;;;;;;;;;;15.70;66.30;;;;;;5053725;28;19917;-72
2024/02/29 07:11:52;;;;;;;;;;;15.80;66.20;;;;;;5053644;28;20248;-72
2024/02/29 07:14:18;;;;;;;;;;;15.80;66.30;;;;;;5053332;28;19915;-72
2024/02/29 07:16:46;;;;;;;;;;;15.70;66.30;;;;;;5053567;28;19916;-71
2024/02/29 07:19:12;;;;;;;;;;;15.80;66.20;;;;;;5053986;28;19916;-71
2024/02/29 07:21:38;;;;;;;;;;;15.60;66.40;;;;;;5053475;28;20286;-72
2024/02/29 07:24:05;;;;;;;;;;;15.80;66.20;;;;;;5053040;28;20012;-72
2024/02/29 07:26:31;;;;;;;;;;;15.60;65.80;;;;;;5053435;28;19940;-70
2024/02/29 07:28:58;;;;;;;;;;;15.70;66.40;;;;;;5053117;28;19909;-70
2024/02/29 07:31:25;;;;;;;;;;;15.70;66.20;;;;;;5053366;28;19919;-73
2024/02/29 07:33:53;;;;;;;;;;;15.70;66.40;;;;;;5052986;28;19916;-73
2024/02/29 07:36:19;;;;;;;;;;;15.70;66.30;;;;;;5053047;28;20382;-72
2024/02/29 07:38:46;;;;;;;;;;;15.70;66.30;;;;;;5053202;28;19909;-72
2024/02/29 07:41:12;;;;;;;;;;;15.70;66.50;;;;;;5053262;28;19996;-72
2024/02/29 07:43:38;;;;;;;;;;;15.80;66.40;;;;;;5052722;28;20404;-72
2024/02/29 07:46:04;;;;;;;;;;;15.70;66.30;;;;;;5053241;28;19916;-72
2024/02/29 07:48:30;;;;;;;;;;;15.70;66.00;;;;;;5053607;28;19956;-72
2024/02/29 07:50:56;;;;;;;;;;;16.00;66.70;;;;;;5053088;28;20302;-72
2024/02/29 07:53:22;;;;;;;;;;;15.70;66.40;;;;;;5053016;28;19909;-72
2024/02/29 07:55:47;;;;;;;;;;;15.70;66.60;;;;;;5052928;28;19913;-74
2024/02/29 07:58:13;;;;;;;;;;;15.70;66.80;;;;;;5053087;28;20007;-75
2024/02/29 08:00:39;;;;;;;;;;;15.70;66.70;;;;;;5053071;28;20324;-70
2024/02/29 08:03:05;;;;;;;;;;;15.70;66.40;;;;;;5052930;28;19948;-69
2024/02/29 08:05:32;;;;;;;;;;;15.70;67.00;;;;;;5052870;28;19917;-70
2024/02/29 08:07:58;;;;;;;;;;;15.70;66.80;;;;;;5052499;28;20350;-69
2024/02/29 08:10:24;;;;;;;;;;;15.80;67.00;;;;;;5052770;28;19909;-69
2024/02/29 08:12:50;;;;;;;;;;;15.70;67.10;;;;;;5052723;28;20004;-69
2024/02/29 08:15:16;;;;;;;;;;;15.70;67.10;;;;;;5052565;28;19967;-69
2024/02/29 08:17:42;;;;;;;;;;;15.80;66.90;;;;;;5053161;28;20004;-70
2024/02/29 08:20:10;;;;;;;;;;;15.70;67.10;;;;;;5052696;28;19909;-69
2024/02/29 08:22:36;;;;;;;;;;;15.70;66.10;;;;;;5052594;28;20227;-69
2024/02/29 08:25:02;;;;;;;;;;;15.80;67.00;;;;;;5052221;28;19964;-70
2024/02/29 08:27:28;;;;;;;;;;;15.70;66.50;;;;;;5052378;28;19916;-69
2024/02/29 08:29:54;;;;;;;;;;;15.70;67.20;;;;;;5052509;28;19909;-69
2024/02/29 08:32:23;;;;;;;;;;;15.70;66.90;;;;;;5052505;28;20282;-69
2024/02/29 08:34:49;;;;;;;;;;;15.70;67.10;;;;;;5052233;28;19917;-69
2024/02/29 08:37:15;;;;;;;;;;;15.60;67.20;;;;;;5052542;28;19909;-69
2024/02/29 08:39:41;;;;;;;;;;;15.70;67.00;;;;;;5052537;28;19939;-69
2024/02/29 08:42:09;;;;;;;;;;;15.60;67.10;;;;;;5052461;28;19912;-69
2024/02/29 08:44:35;;;;;;;;;;;15.70;67.00;;;;;;5052804;28;19924;-69
2024/02/29 08:47:04;;;;;;;;;;;15.70;67.00;;;;;;5052240;28;19948;-69
2024/02/29 08:49:30;;;;;;;;;;;15.70;67.00;;;;;;5052403;28;19908;-69
2024/02/29 08:51:56;;;;;;;;;;;15.70;67.10;;;;;;5052427;28;20279;-69
2024/02/29 08:54:22;;;;;;;;;;;15.70;67.00;;;;;;5052364;28;19932;-69
2024/02/29 08:56:48;;;;;;;;;;;15.70;67.20;;;;;;5052374;28;20291;-69
2024/02/29 08:59:14;;;;;;;;;;;15.70;67.00;;;;;;5052002;28;19928;-69
2024/02/29 09:01:39;;;;;;;;;;;15.70;66.40;;;;;;5052248;28;19909;-69
2024/02/29 09:04:05;;;;;;;;;;;15.70;66.90;;;;;;5052122;28;19924;-69
2024/02/29 09:06:31;;;;;;;;;;;15.60;67.00;;;;;;5052237;28;19909;-69
2024/02/29 09:08:57;;;;;;;;;;;15.60;66.90;;;;;;5051746;28;19976;-69
2024/02/29 09:11:23;;;;;;;;;;;15.60;67.00;;;;;;5051873;28;19913;-69
2024/02/29 09:13:49;;;;;;;;;;;15.70;66.50;;;;;;5052720;28;19943;-69
2024/02/29 09:16:16;;;;;;;;;;;15.70;66.70;;;;;;5051837;28;20291;-69
2024/02/29 09:18:42;;;;;;;;;;;15.70;67.00;;;;;;5052092;28;19916;-69
2024/02/29 09:21:07;;;;;;;;;;;15.60;66.90;;;;;;5052136;28;19908;-69
2024/02/29 09:23:35;;;;;;;;;;;15.70;66.90;;;;;;5052114;28;19927;-69
2024/02/29 09:26:01;;;;;;;;;;;15.60;67.30;;;;;;5053035;28;19920;-69
2024/02/29 09:28:27;;;;;;;;;;;15.70;66.90;;;;;;5055949;28;19909;-69
2024/02/29 09:30:53;;;;;;;;;;;15.70;66.80;;;;;;5055497;28;19954;-69
2024/02/29 09:33:19;;;;;;;;;;;15.60;66.90;;;;;;5055810;28;19909;-69
2024/02/29 09:35:45;;;;;;;;;;;15.60;66.90;;;;;;5055383;28;20279;-70
2024/02/29 09:38:11;;;;;;;;;;;15.60;67.10;;;;;;5055328;28;19916;-69
2024/02/29 09:40:37;;;;;;;;;;;15.60;66.90;;;;;;5055598;28;19908;-69
2024/02/29 09:43:04;;;;;;;;;;;15.60;66.20;;;;;;5055970;28;19995;-69
2024/02/29 09:45:34;;;;;;;;;;;15.60;66.80;;;;;;5055498;28;20016;-69
2024/02/29 09:48:00;;;;;;;;;;;15.60;67.10;;;;;;5055328;28;19948;-69
2024/02/29 09:50:27;;;;;;;;;;;15.60;67.00;;;;;;5055182;28;19944;-69
2024/02/29 09:52:53;;;;;;;;;;;15.60;66.80;;;;;;5055103;28;20368;-69
2024/02/29 09:55:19;;;;;;;;;;;15.60;67.10;;;;;;5055271;28;19909;-69
2024/02/29 09:57:45;;;;;;;;;;;15.60;67.00;;;;;;5055301;28;19932;-69
2024/02/29 10:00:11;;;;;;;;;;;15.60;67.10;;;;;;5054935;28;19909;-69
2024/02/29 10:02:40;;;;;;;;;;;15.60;66.40;;;;;;5054914;28;19916;-69
2024/02/29 10:05:09;;;;;;;;;;;15.60;67.20;;;;;;5054796;28;19924;-69
2024/02/29 10:07:44;;;;;;;;;;;15.60;66.40;;;;;;5054806;28;19947;-68
2024/02/29 10:10:17;;;;;;;;;;;15.60;62.40;;;;;;5055764;28;19908;-70
2024/02/29 10:12:43;;;;;;;;;;;15.60;62.40;;;;;;5054994;28;19916;-70
2024/02/29 10:15:12;;;;;;;;;;;15.60;67.00;;;;;;5054688;28;19908;-70
2024/02/29 10:17:39;;;;;;;;;;;15.50;62.50;;;;;;5054674;28;19931;-69
2024/02/29 10:20:06;;;;;;;;;;;15.60;67.30;;;;;;5054565;28;19999;-71
2024/02/29 10:22:32;;;;;;;;;;;15.60;66.90;;;;;;5054505;28;19909;-70
2024/02/29 10:24:58;;;;;;;;;;;15.60;67.20;;;;;;5054432;28;19923;-70
2024/02/29 10:27:23;;;;;;;;;;;15.90;67.20;;;;;;5054440;28;19954;-70
2024/02/29 10:29:49;;;;;;;;;;;15.60;66.90;;;;;;5054449;28;19913;-72
2024/02/29 10:32:15;;;;;;;;;;;15.70;67.20;;;;;;5054335;28;19956;-70
2024/02/29 10:34:40;;;;;;;;;;;15.60;67.30;;;;;;5054530;28;20003;-70
2024/02/29 10:37:06;;;;;;;;;;;15.50;67.10;;;;;;5054294;28;20290;-70
2024/02/29 10:39:33;;;;;;;;;;;15.70;67.30;;;;;;5054763;28;19961;-70
2024/02/29 10:41:59;;;;;;;;;;;16.00;67.30;;;;;;5054221;28;19909;-70
2024/02/29 10:44:28;;;;;;;;;;;15.50;67.30;;;;;;5054106;28;19916;-70
2024/02/29 10:46:55;;;;;;;;;;;15.60;67.30;;;;;;5054260;28;20005;-69
2024/02/29 10:49:21;;;;;;;;;;;15.60;67.20;;;;;;5053976;28;20295;-70
2024/02/29 10:52:00;;;;;;;;;;;15.60;67.10;;;;;;5054115;28;19909;-70
2024/02/29 10:54:32;;;;;;;;;;;15.60;63.20;;;;;;5054305;28;20465;-70
2024/02/29 10:56:58;;;;;;;;;;;15.60;67.20;;;;;;5054243;28;20291;-70
2024/02/29 10:59:25;;;;;;;;;;;15.70;67.30;;;;;;5053792;28;19974;-70
2024/02/29 11:01:56;;;;;;;;;;;15.60;67.00;;;;;;5053763;28;19936;-70
2024/02/29 11:04:21;;;;;;;;;;;15.60;67.30;;;;;;5053954;28;19924;-70
2024/02/29 11:06:47;;;;;;;;;;;15.60;67.30;;;;;;5054232;28;19916;-70
2024/02/29 11:09:14;;;;;;;;;;;15.60;67.50;;;;;;5053487;28;19982;-70
2024/02/29 11:11:40;;;;;;;;;;;15.60;67.50;;;;;;5053619;28;19916;-70
2024/02/29 11:14:05;;;;;;;;;;;15.50;67.40;;;;;;5053619;28;19909;-70
2024/02/29 11:16:37;;;;;;;;;;;15.60;67.40;;;;;;5053532;28;19915;-70
2024/02/29 11:19:03;;;;;;;;;;;15.70;67.50;;;;;;5053620;28;19915;-70
2024/02/29 11:21:29;;;;;;;;;;;15.60;67.80;;;;;;5053696;28;19908;-70
2024/02/29 11:24:00;;;;;;;;;;;15.60;67.80;;;;;;5053348;28;20386;-71
2024/02/29 11:26:32;;;;;;;;;;;15.60;67.60;;;;;;5053432;28;19916;-71
2024/02/29 11:28:59;;;;;;;;;;;15.60;63.80;;;;;;5053585;28;19974;-69
2024/02/29 11:31:25;;;;;;;;;;;15.50;67.40;;;;;;5053294;28;19909;-69
2024/02/29 11:33:51;;;;;;;;;;;15.60;67.60;;;;;;5053234;28;20375;-70
2024/02/29 11:36:18;;;;;;;;;;;15.50;67.50;;;;;;5053451;28;19951;-71
2024/02/29 11:38:44;;;;;;;;;;;15.60;67.70;;;;;;5053102;28;20014;-71
2024/02/29 11:41:15;;;;;;;;;;;15.60;67.50;;;;;;5053368;28;19948;-71
2024/02/29 11:43:43;;;;;;;;;;;15.30;62.80;;;;;;5053168;28;19912;-71
2024/02/29 11:46:09;;;;;;;;;;;15.50;67.50;;;;;;5053023;28;19915;-70
2024/02/29 11:48:35;;;;;;;;;;;15.50;67.10;;;;;;5052585;28;19909;-69
2024/02/29 11:51:00;;;;;;;;;;;15.60;67.90;;;;;;5052893;28;19913;-70
2024/02/29 11:53:28;;;;;;;;;;;15.60;67.30;;;;;;5053362;28;19909;-69
2024/02/29 11:55:54;;;;;;;;;;;15.60;67.40;;;;;;5052807;28;19913;-70
2024/02/29 11:58:20;;;;;;;;;;;15.60;67.80;;;;;;5052788;28;19915;-70
2024/02/29 12:00:45;;;;;;;;;;;15.50;67.80;;;;;;5052786;28;20271;-70
2024/02/29 12:03:11;;;;;;;;;;;15.50;67.40;;;;;;5052844;28;19916;-69
2024/02/29 12:05:36;;;;;;;;;;;15.60;67.90;;;;;;5052606;28;19924;-69
2024/02/29 12:08:02;;;;;;;;;;;15.60;67.70;;;;;;5052603;28;20371;-69
2024/02/29 12:10:28;;;;;;;;;;;15.60;67.50;;;;;;5052717;28;19908;-69
2024/02/29 12:12:55;;;;;;;;;;;15.50;67.60;;;;;;5052548;28;19913;-69
2024/02/29 12:15:21;;;;;;;;;;;15.50;67.90;;;;;;5052567;28;19909;-70
2024/02/29 12:17:47;;;;;;;;;;;15.50;67.50;;;;;;5052452;28;20379;-70
2024/02/29 12:20:16;;;;;;;;;;;15.60;68.00;;;;;;5052593;28;19909;-70
2024/02/29 12:22:43;;;;;;;;;;;15.60;67.60;;;;;;5053224;28;19909;-73
2024/02/29 12:25:12;;;;;;;;;;;15.60;67.80;;;;;;5052403;28;19963;-73
2024/02/29 12:27:39;;;;;;;;;;;15.60;63.40;;;;;;5052319;28;20513;-73
2024/02/29 12:30:04;;;;;;;;;;;15.60;68.00;;;;;;5052389;28;19948;-73
2024/02/29 12:32:30;;;;;;;;;;;15.60;66.00;;;;;;5052554;28;20387;-73
2024/02/29 12:34:56;;;;;;;;;;;15.50;68.00;;;;;;5052445;28;19995;-73
2024/02/29 12:37:22;;;;;;;;;;;15.50;67.90;;;;;;5052300;28;19916;-74
2024/02/29 12:39:55;;;;;;;;;;;15.50;67.90;;;;;;5052482;28;20275;-73
2024/02/29 12:42:21;;;;;;;;;;;15.50;63.50;;;;;;5034319;28;20364;-73
2024/02/29 12:44:47;;;;;;;;;;;15.60;67.80;;;;;;5052125;28;20028;-74
2024/02/29 12:47:13;;;;;;;;;;;15.60;68.10;;;;;;5052298;28;19908;-74
2024/02/29 12:49:38;;;;;;;;;;;15.50;68.20;;;;;;5052208;28;20007;-71
2024/02/29 12:52:04;;;;;;;;;;;15.50;68.00;;;;;;5052929;28;19912;-72
2024/02/29 12:54:29;;;;;;;;;;;15.60;68.00;;;;;;5052077;28;19915;-73
2024/02/29 12:56:57;;;;;;;;;;;15.50;67.90;;;;;;5051980;28;19916;-73
2024/02/29 12:59:23;;;;;;;;;;;15.60;68.00;;;;;;5052491;28;19909;-73
2024/02/29 13:01:49;;;;;;;;;;;15.60;67.70;;;;;;5054709;28;19920;-73
2024/02/29 13:04:15;;;;;;;;;;;15.40;67.80;;;;;;5056002;28;19924;-73
2024/02/29 13:06:41;;;;;;;;;;;15.50;68.10;;;;;;5055970;28;19909;-73
2024/02/29 13:09:07;;;;;;;;;;;15.50;68.10;;;;;;5055758;28;19921;-73
2024/02/29 13:11:34;;;;;;;;;;;15.50;68.00;;;;;;5056225;28;19998;-73
2024/02/29 13:14:00;;;;;;;;;;;15.60;68.40;;;;;;5056236;28;19913;-73
2024/02/29 13:16:25;;;;;;;;;;;15.60;68.30;;;;;;5056160;28;19971;-72
2024/02/29 13:18:51;;;;;;;;;;;15.50;68.10;;;;;;5056503;28;20298;-73
2024/02/29 13:21:17;;;;;;;;;;;15.50;68.30;;;;;;5056105;28;20359;-73
2024/02/29 13:23:43;;;;;;;;;;;15.60;68.00;;;;;;5055997;28;20359;-73
2024/02/29 13:26:09;;;;;;;;;;;15.60;68.10;;;;;;5055694;28;19948;-73
2024/02/29 13:28:34;;;;;;;;;;;15.50;67.90;;;;;;5055691;28;19909;-73
2024/02/29 13:31:00;;;;;;;;;;;15.50;68.20;;;;;;5055674;28;19909;-73
2024/02/29 13:33:26;;;;;;;;;;;15.50;67.60;;;;;;5055648;28;20391;-73
2024/02/29 13:35:51;;;;;;;;;;;15.70;68.20;;;;;;5055571;28;19934;-73
2024/02/29 13:38:17;;;;;;;;;;;15.50;68.30;;;;;;5055443;28;20274;-73
2024/02/29 13:40:42;;;;;;;;;;;15.50;68.10;;;;;;5055427;28;19941;-73
2024/02/29 13:43:08;;;;;;;;;;;15.50;68.10;;;;;;5055443;28;20283;-73
2024/02/29 13:45:39;;;;;;;;;;;15.50;68.30;;;;;;5055321;28;19921;-73
2024/02/29 13:48:05;;;;;;;;;;;15.50;63.60;;;;;;5055771;28;19909;-73
2024/02/29 13:50:30;;;;;;;;;;;15.50;66.70;;;;;;5055214;28;20410;-73
2024/02/29 13:52:56;;;;;;;;;;;15.50;68.20;;;;;;5055243;28;20271;-73
2024/02/29 13:55:21;;;;;;;;;;;15.50;68.30;;;;;;5055404;28;19909;-73
2024/02/29 13:57:47;;;;;;;;;;;15.50;68.00;;;;;;5055081;28;19916;-73
2024/02/29 14:00:13;;;;;;;;;;;15.60;68.20;;;;;;5055090;28;19909;-73
2024/02/29 14:02:38;;;;;;;;;;;15.50;67.80;;;;;;5054906;28;19908;-73
2024/02/29 14:05:05;;;;;;;;;;;15.50;68.30;;;;;;5054866;28;19966;-73
2024/02/29 14:07:32;;;;;;;;;;;15.50;67.40;;;;;;5054690;28;19936;-73
2024/02/29 14:09:58;;;;;;;;;;;15.50;68.10;;;;;;5054795;28;19916;-71